createdAt,value
2018-07-12T00:00:07.019Z,10.62
2018-07-12T00:01:06.897Z,10.62
2018-07-12T00:02:06.804Z,10.57
2018-07-12T00:03:06.717Z,10.65
2018-07-12T00:04:06.618Z,10.65
2018-07-12T00:05:06.560Z,10.65
2018-07-12T00:06:06.434Z,10.70
2018-07-12T00:07:06.448Z,10.78
2018-07-12T00:08:06.247Z,10.84
2018-07-12T00:09:06.157Z,10.88
2018-07-12T00:10:06.096Z,10.91
2018-07-12T00:11:05.970Z,10.94
2018-07-12T00:12:05.878Z,10.93
2018-07-12T00:13:05.784Z,10.99
2018-07-12T00:14:05.786Z,10.98
2018-07-12T00:15:05.630Z,11.03
2018-07-12T00:16:05.504Z,11.05
2018-07-12T00:17:05.415Z,11.09
2018-07-12T00:18:05.321Z,11.11
2018-07-12T00:19:05.227Z,11.06
2018-07-12T00:20:05.167Z,11.06
2018-07-12T00:21:05.134Z,11.09
2018-07-12T00:22:04.953Z,11.11
2018-07-12T00:23:04.860Z,11.06
2018-07-12T00:24:04.767Z,11.17
2018-07-12T00:25:04.708Z,11.11
2018-07-12T00:26:04.579Z,11.13
2018-07-12T00:27:04.489Z,11.21
2018-07-12T00:28:04.505Z,11.20
2018-07-12T00:29:04.303Z,11.19
2018-07-12T00:30:04.249Z,11.19
2018-07-12T00:31:04.119Z,11.16
2018-07-12T00:32:04.028Z,11.19
2018-07-12T00:33:03.934Z,11.19
2018-07-12T00:34:03.840Z,11.17
2018-07-12T00:35:03.872Z,11.19
2018-07-12T00:36:03.655Z,11.23
2018-07-12T00:37:03.567Z,11.23
2018-07-12T00:38:03.474Z,11.26
2018-07-12T00:39:03.382Z,11.23
2018-07-12T00:40:03.317Z,11.30
2018-07-12T00:41:03.197Z,11.28
2018-07-12T00:42:03.199Z,11.28
2018-07-12T00:43:03.009Z,11.27
2018-07-12T00:44:02.920Z,11.26
2018-07-12T00:45:02.835Z,11.27
2018-07-12T00:46:02.765Z,11.28
2018-07-12T00:47:02.644Z,11.36
2018-07-12T00:48:02.552Z,11.38
2018-07-12T00:49:02.551Z,11.41
2018-07-12T00:50:02.370Z,11.41
2018-07-12T00:51:02.306Z,11.44
2018-07-12T00:52:02.185Z,11.38
2018-07-12T00:53:02.096Z,11.31
2018-07-12T00:54:02.000Z,11.36
2018-07-12T00:55:01.906Z,11.38
2018-07-12T00:56:01.936Z,11.39
2018-07-12T00:57:01.722Z,11.31
2018-07-12T00:58:01.631Z,11.30
2018-07-12T00:59:01.537Z,11.41
2018-07-12T01:00:04.710Z,11.30
2018-07-12T01:01:01.382Z,11.27
2018-07-12T01:02:01.260Z,11.28
2018-07-12T01:03:01.260Z,11.23
2018-07-12T01:04:01.076Z,11.23
2018-07-12T01:05:00.983Z,11.28
2018-07-12T01:06:00.924Z,11.31
2018-07-12T01:07:00.797Z,11.30
2018-07-12T01:08:00.735Z,11.27
2018-07-12T01:09:00.613Z,11.31
2018-07-12T01:10:00.617Z,11.24
2018-07-12T01:11:00.461Z,11.16
2018-07-12T01:12:00.344Z,11.20
2018-07-12T01:13:00.245Z,11.24
2018-07-12T01:14:00.154Z,11.21
2018-07-12T01:15:00.067Z,11.26
2018-07-12T01:16:00.014Z,11.24
2018-07-12T01:16:59.971Z,11.16
2018-07-12T01:17:59.790Z,11.19
2018-07-12T01:18:59.690Z,11.28
2018-07-12T01:19:59.603Z,11.21
2018-07-12T01:20:59.539Z,11.26
2018-07-12T01:21:59.414Z,11.21
2018-07-12T01:22:59.324Z,11.27
2018-07-12T01:23:59.240Z,11.31
2018-07-12T01:24:59.137Z,11.28
2018-07-12T01:25:59.084Z,11.23
2018-07-12T01:26:58.954Z,11.24
2018-07-12T01:27:58.862Z,11.33
2018-07-12T01:28:58.770Z,11.30
2018-07-12T01:29:58.678Z,11.33
2018-07-12T01:30:58.618Z,11.24
2018-07-12T01:31:58.495Z,11.24
2018-07-12T01:32:58.403Z,11.27
2018-07-12T01:33:58.312Z,11.28
2018-07-12T01:34:58.216Z,11.35
2018-07-12T01:35:58.162Z,11.24
2018-07-12T01:36:58.034Z,11.35
2018-07-12T01:37:57.941Z,11.24
2018-07-12T01:38:57.847Z,11.35
2018-07-12T01:39:57.761Z,11.24
2018-07-12T01:40:57.700Z,11.30
2018-07-12T01:41:57.572Z,11.24
2018-07-12T01:42:57.478Z,11.27
2018-07-12T01:43:57.386Z,11.35
2018-07-12T01:44:57.294Z,11.27
2018-07-12T01:45:57.238Z,11.39
2018-07-12T01:46:57.111Z,11.35
2018-07-12T01:47:57.019Z,11.42
2018-07-12T01:48:56.926Z,11.36
2018-07-12T01:49:56.831Z,11.31
2018-07-12T01:50:56.773Z,11.38
2018-07-12T01:51:56.647Z,11.30
2018-07-12T01:52:56.552Z,11.35
2018-07-12T01:53:56.462Z,11.42
2018-07-12T01:54:56.371Z,11.35
2018-07-12T01:55:56.311Z,11.31
2018-07-12T01:56:56.182Z,11.36
2018-07-12T01:57:56.094Z,11.39
2018-07-12T01:58:56.000Z,11.46
2018-07-12T01:59:55.908Z,11.45
2018-07-12T02:00:55.848Z,11.44
2018-07-12T02:01:55.724Z,11.44
2018-07-12T02:02:55.631Z,11.45
2018-07-12T02:03:55.538Z,11.41
2018-07-12T02:04:55.444Z,11.35
2018-07-12T02:05:55.384Z,11.36
2018-07-12T02:06:55.259Z,11.26
2018-07-12T02:07:55.169Z,11.19
2018-07-12T02:08:55.080Z,11.13
2018-07-12T02:09:54.985Z,11.17
2018-07-12T02:10:54.921Z,11.13
2018-07-12T02:11:54.799Z,11.13
2018-07-12T02:12:54.708Z,11.08
2018-07-12T02:13:54.616Z,11.08
2018-07-12T02:14:54.523Z,11.11
2018-07-12T02:15:54.432Z,11.11
2018-07-12T02:16:54.422Z,11.01
2018-07-12T02:17:54.248Z,10.98
2018-07-12T02:18:54.152Z,11.01
2018-07-12T02:19:54.062Z,10.98
2018-07-12T02:20:53.969Z,11.13
2018-07-12T02:21:53.910Z,11.06
2018-07-12T02:22:53.781Z,11.08
2018-07-12T02:23:53.690Z,11.09
2018-07-12T02:24:53.598Z,11.16
2018-07-12T02:25:53.505Z,11.06
2018-07-12T02:26:53.447Z,11.11
2018-07-12T02:27:53.321Z,11.19
2018-07-12T02:28:53.231Z,11.17
2018-07-12T02:29:53.136Z,11.13
2018-07-12T02:30:53.044Z,11.16
2018-07-12T02:31:52.978Z,11.21
2018-07-12T02:32:52.857Z,11.12
2018-07-12T02:33:52.764Z,11.21
2018-07-12T02:34:52.670Z,11.19
2018-07-12T02:35:52.582Z,11.19
2018-07-12T02:36:52.519Z,11.17
2018-07-12T02:37:52.396Z,11.17
2018-07-12T02:38:52.301Z,11.16
2018-07-12T02:39:52.211Z,11.16
2018-07-12T02:40:52.118Z,11.19
2018-07-12T02:41:52.055Z,11.16
2018-07-12T02:42:51.933Z,11.23
2018-07-12T02:43:51.837Z,11.16
2018-07-12T02:44:51.746Z,11.23
2018-07-12T02:45:51.659Z,11.17
2018-07-12T02:46:51.591Z,11.21
2018-07-12T02:47:51.473Z,11.17
2018-07-12T02:48:51.384Z,11.17
2018-07-12T02:49:51.284Z,11.17
2018-07-12T02:50:51.193Z,11.13
2018-07-12T02:51:51.128Z,11.11
2018-07-12T02:52:51.008Z,11.09
2018-07-12T02:53:50.921Z,11.05
2018-07-12T02:54:50.916Z,10.98
2018-07-12T02:55:50.735Z,11.09
2018-07-12T02:56:50.666Z,11.13
2018-07-12T02:57:50.545Z,11.06
2018-07-12T02:58:50.450Z,11.09
2018-07-12T02:59:50.373Z,11.16
2018-07-12T03:00:50.266Z,11.12
2018-07-12T03:01:50.208Z,11.11
2018-07-12T03:02:50.083Z,11.17
2018-07-12T03:03:49.988Z,11.17
2018-07-12T03:04:49.896Z,11.13
2018-07-12T03:05:49.805Z,11.13
2018-07-12T03:06:49.744Z,11.17
2018-07-12T03:07:49.618Z,11.13
2018-07-12T03:08:49.621Z,11.16
2018-07-12T03:09:49.438Z,11.20
2018-07-12T03:10:49.346Z,11.16
2018-07-12T03:11:49.285Z,11.21
2018-07-12T03:12:49.161Z,11.19
2018-07-12T03:13:49.064Z,11.13
2018-07-12T03:14:48.972Z,11.20
2018-07-12T03:15:48.973Z,11.26
2018-07-12T03:16:48.819Z,11.19
2018-07-12T03:17:48.699Z,11.23
2018-07-12T03:18:48.603Z,11.26
2018-07-12T03:19:48.514Z,11.24
2018-07-12T03:20:48.421Z,11.26
2018-07-12T03:21:48.360Z,11.28
2018-07-12T03:22:48.327Z,11.35
2018-07-12T03:23:48.140Z,11.35
2018-07-12T03:24:48.048Z,11.35
2018-07-12T03:25:47.959Z,11.39
2018-07-12T03:26:47.899Z,11.44
2018-07-12T03:27:47.771Z,11.39
2018-07-12T03:28:47.683Z,11.45
2018-07-12T03:29:47.683Z,11.48
2018-07-12T03:30:47.493Z,11.56
2018-07-12T03:31:47.436Z,11.57
2018-07-12T03:32:47.313Z,11.49
2018-07-12T03:33:47.221Z,11.51
2018-07-12T03:34:47.132Z,11.64
2018-07-12T03:35:47.036Z,11.66
2018-07-12T03:36:47.062Z,11.59
2018-07-12T03:37:46.849Z,11.53
2018-07-12T03:38:46.761Z,11.53
2018-07-12T03:39:46.667Z,11.63
2018-07-12T03:40:46.577Z,11.51
2018-07-12T03:41:46.513Z,11.57
2018-07-12T03:42:46.390Z,11.67
2018-07-12T03:43:46.389Z,11.64
2018-07-12T03:44:46.207Z,11.64
2018-07-12T03:45:46.113Z,11.63
2018-07-12T03:46:46.024Z,11.69
2018-07-12T03:47:45.963Z,11.72
2018-07-12T03:48:45.835Z,11.74
2018-07-12T03:49:45.746Z,11.69
2018-07-12T03:50:45.742Z,11.78
2018-07-12T03:51:45.565Z,11.75
2018-07-12T03:52:45.502Z,11.78
2018-07-12T03:53:45.378Z,11.77
2018-07-12T03:54:45.284Z,11.87
2018-07-12T03:55:45.192Z,11.85
2018-07-12T03:56:45.107Z,11.88
2018-07-12T03:57:45.135Z,11.98
2018-07-12T03:58:44.923Z,11.97
2018-07-12T03:59:44.826Z,11.96
2018-07-12T04:00:44.733Z,11.93
2018-07-12T04:01:45.167Z,11.97
2018-07-12T04:02:44.584Z,11.93
2018-07-12T04:03:44.457Z,11.98
2018-07-12T04:04:44.462Z,11.93
2018-07-12T04:05:44.275Z,11.96
2018-07-12T04:06:44.184Z,11.94
2018-07-12T04:07:44.123Z,12.00
2018-07-12T04:08:43.999Z,12.04
2018-07-12T04:09:43.909Z,12.08
2018-07-12T04:10:43.814Z,12.11
2018-07-12T04:11:43.823Z,12.18
2018-07-12T04:12:43.667Z,12.22
2018-07-12T04:13:43.541Z,12.26
2018-07-12T04:14:43.450Z,12.25
2018-07-12T04:15:43.357Z,12.25
2018-07-12T04:16:43.268Z,12.41
2018-07-12T04:17:43.208Z,12.38
2018-07-12T04:18:43.172Z,12.48
2018-07-12T04:19:42.991Z,12.44
2018-07-12T04:20:42.897Z,12.44
2018-07-12T04:21:42.806Z,12.44
2018-07-12T04:22:42.748Z,12.52
2018-07-12T04:23:42.624Z,12.48
2018-07-12T04:24:42.531Z,12.55
2018-07-12T04:25:42.439Z,12.51
2018-07-12T04:26:42.349Z,12.58
2018-07-12T04:27:42.289Z,12.61
2018-07-12T04:28:42.172Z,12.62
2018-07-12T04:29:42.076Z,12.61
2018-07-12T04:30:41.985Z,12.67
2018-07-12T04:31:41.893Z,12.70
2018-07-12T04:32:41.838Z,12.71
2018-07-12T04:33:41.710Z,12.69
2018-07-12T04:34:41.661Z,12.85
2018-07-12T04:35:41.526Z,12.89
2018-07-12T04:36:41.437Z,12.89
2018-07-12T04:37:41.443Z,12.87
2018-07-12T04:38:41.256Z,12.88
2018-07-12T04:39:41.162Z,12.85
2018-07-12T04:40:41.072Z,12.92
2018-07-12T04:41:40.984Z,12.92
2018-07-12T04:42:40.920Z,12.89
2018-07-12T04:43:40.801Z,13.04
2018-07-12T04:44:40.706Z,12.99
2018-07-12T04:45:40.616Z,12.98
2018-07-12T04:46:40.527Z,13.04
2018-07-12T04:47:40.469Z,13.09
2018-07-12T04:48:40.344Z,13.13
2018-07-12T04:49:40.251Z,13.06
2018-07-12T04:50:40.164Z,13.19
2018-07-12T04:51:40.070Z,13.21
2018-07-12T04:52:40.011Z,13.21
2018-07-12T04:53:39.889Z,13.22
2018-07-12T04:54:39.798Z,13.27
2018-07-12T04:55:39.710Z,13.32
2018-07-12T04:56:39.619Z,13.39
2018-07-12T04:57:39.554Z,13.35
2018-07-12T04:58:39.438Z,13.46
2018-07-12T04:59:39.343Z,13.44
2018-07-12T05:00:39.256Z,13.48
2018-07-12T05:01:39.161Z,13.48
2018-07-12T05:02:39.106Z,13.44
2018-07-12T05:03:38.982Z,13.41
2018-07-12T05:04:38.890Z,13.39
2018-07-12T05:05:38.801Z,13.38
2018-07-12T05:06:38.715Z,13.43
2018-07-12T05:07:38.650Z,13.32
2018-07-12T05:08:38.535Z,13.38
2018-07-12T05:09:38.439Z,13.31
2018-07-12T05:10:38.349Z,13.29
2018-07-12T05:11:38.261Z,13.28
2018-07-12T05:12:38.198Z,13.24
2018-07-12T05:13:38.075Z,13.25
2018-07-12T05:14:37.984Z,13.21
2018-07-12T05:15:37.894Z,13.22
2018-07-12T05:16:37.804Z,13.16
2018-07-12T05:17:37.718Z,13.12
2018-07-12T05:18:37.653Z,13.14
2018-07-12T05:19:37.531Z,13.06
2018-07-12T05:20:37.442Z,13.12
2018-07-12T05:21:37.351Z,13.12
2018-07-12T05:22:37.261Z,12.96
2018-07-12T05:23:37.203Z,13.06
2018-07-12T05:24:37.082Z,12.99
2018-07-12T05:25:36.990Z,12.99
2018-07-12T05:26:36.898Z,13.03
2018-07-12T05:27:36.809Z,12.98
2018-07-12T05:28:36.747Z,12.99
2018-07-12T05:29:36.627Z,12.89
2018-07-12T05:30:36.534Z,13.04
2018-07-12T05:31:36.445Z,12.99
2018-07-12T05:32:36.354Z,13.03
2018-07-12T05:33:36.292Z,13.04
2018-07-12T05:34:36.201Z,13.06
2018-07-12T05:35:36.080Z,13.04
2018-07-12T05:36:35.989Z,13.03
2018-07-12T05:37:35.898Z,13.09
2018-07-12T05:38:35.835Z,13.07
2018-07-12T05:39:35.717Z,13.07
2018-07-12T05:40:35.629Z,13.07
2018-07-12T05:41:35.627Z,13.12
2018-07-12T05:42:35.445Z,13.04
2018-07-12T05:43:35.385Z,13.14
2018-07-12T05:44:35.263Z,13.21
2018-07-12T05:45:35.173Z,13.22
2018-07-12T05:46:35.122Z,13.28
2018-07-12T05:47:34.988Z,13.36
2018-07-12T05:48:34.931Z,13.43
2018-07-12T05:49:34.810Z,13.47
2018-07-12T05:50:34.720Z,13.47
2018-07-12T05:51:34.627Z,13.53
2018-07-12T05:52:34.537Z,13.53
2018-07-12T05:53:34.480Z,13.59
2018-07-12T05:54:34.355Z,13.63
2018-07-12T05:55:34.366Z,13.63
2018-07-12T05:56:34.177Z,13.62
2018-07-12T05:57:34.185Z,13.63
2018-07-12T05:58:34.038Z,13.62
2018-07-12T05:59:33.904Z,13.76
2018-07-12T06:00:33.813Z,13.87
2018-07-12T06:01:33.723Z,13.84
2018-07-12T06:02:33.725Z,13.94
2018-07-12T06:03:33.573Z,13.88
2018-07-12T06:04:33.457Z,13.96
2018-07-12T06:05:33.359Z,14.05
2018-07-12T06:06:33.271Z,13.98
2018-07-12T06:07:33.178Z,14.08
2018-07-12T06:08:33.117Z,14.01
2018-07-12T06:09:33.091Z,14.04
2018-07-12T06:10:32.911Z,13.99
2018-07-12T06:11:32.822Z,13.96
2018-07-12T06:12:32.729Z,13.96
2018-07-12T06:13:32.670Z,13.93
2018-07-12T06:14:32.550Z,13.88
2018-07-12T06:15:32.461Z,13.91
2018-07-12T06:16:32.459Z,13.90
2018-07-12T06:17:32.280Z,13.90
2018-07-12T06:18:32.251Z,13.96
2018-07-12T06:19:32.102Z,13.96
2018-07-12T06:20:32.013Z,13.96
2018-07-12T06:21:31.920Z,14.01
2018-07-12T06:22:31.835Z,14.02
2018-07-12T06:23:31.862Z,14.01
2018-07-12T06:24:31.660Z,14.05
2018-07-12T06:25:31.561Z,14.01
2018-07-12T06:26:31.472Z,13.96
2018-07-12T06:27:31.389Z,13.96
2018-07-12T06:28:31.322Z,14.09
2018-07-12T06:29:31.199Z,14.21
2018-07-12T06:30:31.199Z,14.26
2018-07-12T06:31:31.027Z,14.31
2018-07-12T06:32:30.931Z,14.36
2018-07-12T06:33:30.870Z,14.49
2018-07-12T06:34:30.749Z,14.44
2018-07-12T06:35:30.659Z,14.45
2018-07-12T06:36:30.569Z,14.48
2018-07-12T06:37:30.578Z,14.49
2018-07-12T06:38:30.421Z,14.35
2018-07-12T06:39:30.301Z,14.36
2018-07-12T06:40:30.210Z,14.34
2018-07-12T06:41:30.122Z,14.34
2018-07-12T06:42:30.041Z,14.23
2018-07-12T06:43:29.975Z,14.19
2018-07-12T06:44:29.957Z,14.09
2018-07-12T06:45:29.771Z,14.24
2018-07-12T06:46:29.673Z,14.06
2018-07-12T06:47:29.584Z,14.09
2018-07-12T06:48:29.531Z,14.06
2018-07-12T06:49:29.408Z,14.12
2018-07-12T06:50:29.317Z,14.19
2018-07-12T06:51:29.314Z,14.19
2018-07-12T06:52:29.134Z,14.21
2018-07-12T06:53:29.046Z,14.36
2018-07-12T06:54:28.985Z,14.36
2018-07-12T06:55:28.865Z,14.41
2018-07-12T06:56:28.779Z,14.49
2018-07-12T06:57:28.686Z,14.57
2018-07-12T06:58:28.669Z,14.60
2018-07-12T06:59:28.536Z,14.78
2018-07-12T07:00:28.418Z,14.87
2018-07-12T07:01:28.329Z,15.03
2018-07-12T07:02:28.249Z,15.07
2018-07-12T07:03:28.153Z,15.27
2018-07-12T07:04:28.091Z,15.27
2018-07-12T07:05:28.060Z,15.18
2018-07-12T07:06:27.879Z,15.22
2018-07-12T07:07:27.793Z,15.19
2018-07-12T07:08:27.702Z,15.05
2018-07-12T07:09:27.643Z,15.05
2018-07-12T07:10:27.524Z,15.01
2018-07-12T07:11:27.437Z,15.01
2018-07-12T07:12:27.346Z,14.95
2018-07-12T07:13:27.257Z,15.03
2018-07-12T07:14:27.201Z,15.04
2018-07-12T07:15:27.077Z,15.03
2018-07-12T07:16:26.989Z,15.00
2018-07-12T07:17:26.900Z,14.95
2018-07-12T07:18:26.809Z,14.91
2018-07-12T07:19:26.748Z,14.98
2018-07-12T07:20:26.634Z,15.05
2018-07-12T07:21:26.543Z,15.05
2018-07-12T07:22:26.452Z,15.13
2018-07-12T07:23:26.363Z,15.18
2018-07-12T07:24:26.307Z,15.18
2018-07-12T07:25:26.187Z,15.22
2018-07-12T07:26:26.098Z,15.20
2018-07-12T07:27:26.008Z,15.25
2018-07-12T07:28:25.916Z,15.33
2018-07-12T07:29:25.866Z,15.58
2018-07-12T07:30:25.751Z,15.81
2018-07-12T07:31:25.653Z,15.92
2018-07-12T07:32:25.575Z,16.13
2018-07-12T07:33:25.521Z,16.04
2018-07-12T07:34:25.425Z,16.32
2018-07-12T07:35:25.295Z,16.52
2018-07-12T07:36:25.208Z,16.48
2018-07-12T07:37:25.118Z,16.50
2018-07-12T07:38:25.029Z,16.66
2018-07-12T07:39:24.976Z,16.92
2018-07-12T07:40:24.855Z,17.05
2018-07-12T07:41:24.769Z,17.02
2018-07-12T07:42:24.675Z,16.87
2018-07-12T07:43:24.589Z,16.92
2018-07-12T07:44:24.536Z,16.96
2018-07-12T07:45:24.411Z,16.92
2018-07-12T07:46:24.325Z,17.05
2018-07-12T07:47:24.237Z,16.96
2018-07-12T07:48:24.149Z,17.05
2018-07-12T07:49:24.133Z,17.07
2018-07-12T07:50:23.973Z,17.07
2018-07-12T07:51:23.898Z,17.05
2018-07-12T07:52:23.799Z,17.07
2018-07-12T07:53:23.711Z,16.91
2018-07-12T07:54:23.653Z,16.77
2018-07-12T07:55:23.540Z,16.75
2018-07-12T07:56:23.448Z,16.59
2018-07-12T07:57:23.363Z,16.50
2018-07-12T07:58:23.272Z,16.47
2018-07-12T07:59:23.217Z,16.51
2018-07-12T08:00:23.098Z,16.54
2018-07-12T08:01:23.012Z,16.48
2018-07-12T08:02:22.923Z,16.22
2018-07-12T08:03:22.852Z,16.14
2018-07-12T08:04:22.782Z,16.03
2018-07-12T08:05:22.661Z,15.95
2018-07-12T08:06:22.570Z,15.80
2018-07-12T08:07:22.485Z,15.78
2018-07-12T08:08:22.399Z,15.67
2018-07-12T08:09:22.364Z,15.59
2018-07-12T08:10:22.221Z,15.48
2018-07-12T08:11:22.131Z,15.41
2018-07-12T08:12:22.047Z,15.37
2018-07-12T08:13:21.959Z,15.43
2018-07-12T08:14:21.901Z,15.51
2018-07-12T08:15:21.788Z,15.60
2018-07-12T08:16:21.733Z,15.56
2018-07-12T08:17:21.605Z,15.73
2018-07-12T08:18:21.518Z,15.76
2018-07-12T08:19:21.431Z,15.95
2018-07-12T08:20:21.371Z,16.07
2018-07-12T08:21:21.256Z,16.25
2018-07-12T08:22:21.163Z,16.45
2018-07-12T08:23:21.075Z,16.59
2018-07-12T08:24:20.991Z,16.75
2018-07-12T08:25:20.935Z,16.88
2018-07-12T08:26:20.811Z,16.88
2018-07-12T08:27:20.726Z,17.03
2018-07-12T08:28:20.635Z,17.20
2018-07-12T08:29:20.550Z,17.24
2018-07-12T08:30:20.489Z,17.36
2018-07-12T08:31:20.490Z,17.40
2018-07-12T08:32:20.285Z,17.70
2018-07-12T08:33:20.227Z,17.91
2018-07-12T08:34:20.127Z,17.91
2018-07-12T08:35:20.050Z,17.70
2018-07-12T08:36:20.316Z,17.58
2018-07-12T08:37:19.848Z,17.49
2018-07-12T08:38:19.758Z,17.51
2018-07-12T08:39:19.670Z,17.62
2018-07-12T08:40:19.613Z,17.62
2018-07-12T08:41:19.503Z,17.36
2018-07-12T08:42:19.441Z,17.28
2018-07-12T08:43:19.409Z,17.20
2018-07-12T08:44:19.241Z,17.10
2018-07-12T08:45:19.178Z,17.05
2018-07-12T08:46:19.162Z,16.88
2018-07-12T08:47:18.973Z,16.77
2018-07-12T08:48:18.906Z,16.87
2018-07-12T08:49:18.797Z,16.77
2018-07-12T08:50:18.840Z,16.67
2018-07-12T08:51:18.621Z,16.70
2018-07-12T08:52:18.536Z,16.72
2018-07-12T08:53:18.447Z,16.69
2018-07-12T08:54:18.371Z,16.82
2018-07-12T08:55:18.304Z,16.75
2018-07-12T08:56:18.187Z,16.63
2018-07-12T08:57:18.192Z,16.65
2018-07-12T08:58:18.010Z,16.77
2018-07-12T08:59:17.921Z,16.96
2018-07-12T09:00:17.870Z,17.27
2018-07-12T09:01:17.750Z,17.62
2018-07-12T09:02:17.663Z,17.83
2018-07-12T09:03:17.575Z,18.38
2018-07-12T09:04:17.592Z,18.64
2018-07-12T09:05:17.430Z,18.54
2018-07-12T09:06:17.312Z,18.78
2018-07-12T09:07:17.225Z,19.05
2018-07-12T09:08:17.138Z,19.28
2018-07-12T09:09:17.053Z,19.45
2018-07-12T09:10:16.994Z,19.46
2018-07-12T09:11:16.963Z,19.40
2018-07-12T09:12:16.791Z,19.25
2018-07-12T09:13:16.703Z,19.21
2018-07-12T09:14:16.616Z,18.90
2018-07-12T09:15:16.563Z,18.75
2018-07-12T09:16:16.451Z,18.46
2018-07-12T09:17:16.362Z,18.32
2018-07-12T09:18:16.385Z,18.07
2018-07-12T09:19:16.189Z,17.94
2018-07-12T09:20:16.135Z,17.92
2018-07-12T09:21:16.014Z,17.95
2018-07-12T09:22:15.928Z,17.89
2018-07-12T09:23:15.874Z,18.04
2018-07-12T09:24:15.765Z,18.26
2018-07-12T09:25:15.809Z,18.21
2018-07-12T09:26:15.581Z,18.36
2018-07-12T09:27:15.497Z,18.47
2018-07-12T09:28:15.411Z,18.72
2018-07-12T09:29:15.378Z,18.68
2018-07-12T09:30:15.268Z,18.69
2018-07-12T09:31:15.150Z,18.76
2018-07-12T09:32:15.162Z,18.72
2018-07-12T09:33:14.981Z,18.59
2018-07-12T09:34:14.895Z,18.64
2018-07-12T09:35:14.841Z,18.64
2018-07-12T09:36:14.722Z,18.72
2018-07-12T09:37:14.640Z,18.66
2018-07-12T09:38:14.553Z,18.71
2018-07-12T09:39:14.465Z,18.57
2018-07-12T09:40:14.410Z,18.26
2018-07-12T09:41:14.294Z,18.13
2018-07-12T09:42:14.210Z,18.07
2018-07-12T09:43:14.122Z,18.10
2018-07-12T09:44:14.034Z,18.32
2018-07-12T09:45:13.984Z,18.87
2018-07-12T09:46:13.866Z,19.13
2018-07-12T09:47:13.780Z,19.31
2018-07-12T09:48:13.717Z,19.61
2018-07-12T09:49:13.697Z,19.76
2018-07-12T09:50:13.568Z,19.52
2018-07-12T09:51:13.433Z,19.58
2018-07-12T09:52:13.348Z,19.47
2018-07-12T09:53:13.263Z,19.34
2018-07-12T09:54:13.176Z,19.05
2018-07-12T09:55:13.092Z,19.07
2018-07-12T09:56:13.084Z,19.21
2018-07-12T09:57:12.921Z,19.27
2018-07-12T09:58:12.840Z,19.42
2018-07-12T09:59:12.748Z,19.67
2018-07-12T10:00:12.668Z,19.72
2018-07-12T10:01:12.684Z,19.79
2018-07-12T10:02:12.493Z,20.01
2018-07-12T10:03:12.404Z,20.37
2018-07-12T10:04:12.321Z,20.71
2018-07-12T10:05:12.240Z,21.06
2018-07-12T10:06:12.180Z,21.05
2018-07-12T10:07:12.065Z,20.93
2018-07-12T10:08:11.984Z,21.09
2018-07-12T10:09:11.897Z,20.56
2018-07-12T10:10:11.813Z,20.54
2018-07-12T10:11:11.760Z,20.48
2018-07-12T10:12:11.654Z,20.38
2018-07-12T10:13:11.557Z,19.89
2018-07-12T10:14:11.473Z,20.15
2018-07-12T10:15:11.393Z,19.97
2018-07-12T10:16:11.334Z,19.75
2018-07-12T10:17:11.222Z,19.32
2018-07-12T10:18:11.135Z,19.28
2018-07-12T10:19:11.047Z,19.16
2018-07-12T10:20:10.969Z,19.01
2018-07-12T10:21:10.913Z,18.96
2018-07-12T10:22:10.796Z,18.93
2018-07-12T10:23:10.712Z,18.91
2018-07-12T10:24:10.626Z,18.96
2018-07-12T10:25:10.541Z,18.94
2018-07-12T10:26:10.487Z,18.97
2018-07-12T10:27:10.375Z,19.10
2018-07-12T10:28:10.287Z,19.06
2018-07-12T10:29:10.202Z,19.20
2018-07-12T10:30:10.117Z,19.12
2018-07-12T10:31:10.070Z,19.09
2018-07-12T10:32:09.947Z,18.93
2018-07-12T10:33:09.862Z,18.84
2018-07-12T10:34:09.779Z,18.93
2018-07-12T10:35:09.689Z,18.90
2018-07-12T10:36:09.638Z,18.83
2018-07-12T10:37:09.523Z,18.91
2018-07-12T10:38:09.432Z,19.01
2018-07-12T10:39:09.347Z,19.05
2018-07-12T10:40:09.272Z,19.27
2018-07-12T10:41:09.215Z,19.28
2018-07-12T10:42:09.094Z,19.05
2018-07-12T10:43:09.010Z,19.12
2018-07-12T10:44:08.920Z,18.97
2018-07-12T10:45:08.838Z,18.90
2018-07-12T10:46:08.780Z,18.68
2018-07-12T10:47:08.662Z,18.53
2018-07-12T10:48:08.579Z,18.21
2018-07-12T10:49:08.493Z,17.83
2018-07-12T10:50:08.411Z,17.62
2018-07-12T10:51:08.355Z,17.60
2018-07-12T10:52:08.236Z,17.43
2018-07-12T10:53:08.150Z,17.36
2018-07-12T10:54:08.064Z,17.30
2018-07-12T10:55:08.083Z,17.12
2018-07-12T10:56:07.923Z,17.06
2018-07-12T10:57:07.805Z,17.06
2018-07-12T10:58:07.716Z,16.96
2018-07-12T10:59:07.633Z,16.95
2018-07-12T11:00:07.543Z,16.92
2018-07-12T11:01:07.494Z,16.99
2018-07-12T11:02:07.462Z,16.98
2018-07-12T11:03:07.285Z,16.91
2018-07-12T11:04:07.197Z,16.87
2018-07-12T11:05:07.123Z,17.03
2018-07-12T11:06:07.061Z,16.96
2018-07-12T11:07:06.938Z,17.02
2018-07-12T11:08:06.851Z,16.95
2018-07-12T11:09:06.874Z,16.91
2018-07-12T11:10:06.675Z,16.95
2018-07-12T11:11:08.047Z,17.07
2018-07-12T11:12:06.505Z,17.07
2018-07-12T11:13:06.414Z,17.22
2018-07-12T11:14:06.326Z,17.35
2018-07-12T11:15:06.239Z,17.49
2018-07-12T11:16:06.245Z,17.57
2018-07-12T11:17:06.097Z,17.76
2018-07-12T11:18:05.996Z,17.76
2018-07-12T11:19:05.887Z,17.89
2018-07-12T11:20:05.806Z,18.02
2018-07-12T11:21:05.729Z,18.16
2018-07-12T11:22:05.656Z,18.26
2018-07-12T11:23:05.632Z,18.29
2018-07-12T11:24:05.454Z,18.41
2018-07-12T11:25:05.368Z,18.29
2018-07-12T11:26:05.280Z,18.29
2018-07-12T11:27:05.221Z,18.41
2018-07-12T11:28:05.152Z,18.38
2018-07-12T11:29:05.017Z,18.32
2018-07-12T11:30:05.025Z,18.31
2018-07-12T11:31:04.846Z,18.31
2018-07-12T11:32:04.789Z,18.31
2018-07-12T11:33:04.672Z,18.25
2018-07-12T11:34:04.580Z,18.17
2018-07-12T11:35:04.497Z,18.13
2018-07-12T11:36:04.409Z,18.11
2018-07-12T11:37:04.516Z,18.04
2018-07-12T11:38:04.233Z,18.04
2018-07-12T11:39:04.149Z,18.16
2018-07-12T11:40:04.059Z,18.44
2018-07-12T11:41:03.974Z,18.57
2018-07-12T11:42:03.917Z,18.74
2018-07-12T11:43:03.804Z,18.82
2018-07-12T11:44:03.808Z,18.82
2018-07-12T11:45:03.630Z,18.74
2018-07-12T11:46:03.539Z,18.78
2018-07-12T11:47:03.484Z,18.74
2018-07-12T11:48:03.371Z,18.76
2018-07-12T11:49:03.277Z,18.82
2018-07-12T11:50:03.190Z,18.71
2018-07-12T11:51:03.205Z,18.69
2018-07-12T11:52:03.052Z,18.75
2018-07-12T11:53:02.935Z,18.68
2018-07-12T11:54:02.846Z,18.69
2018-07-12T11:55:02.761Z,18.76
2018-07-12T11:56:02.673Z,18.75
2018-07-12T11:57:02.620Z,18.84
2018-07-12T11:58:02.592Z,18.96
2018-07-12T11:59:02.415Z,18.99
2018-07-12T12:00:02.329Z,18.89
2018-07-12T12:01:02.244Z,18.75
2018-07-12T12:02:02.247Z,18.84
2018-07-12T12:03:02.070Z,19.01
2018-07-12T12:04:01.981Z,19.02
2018-07-12T12:05:01.984Z,19.16
2018-07-12T12:06:01.811Z,19.15
2018-07-12T12:07:01.774Z,19.24
2018-07-12T12:08:01.636Z,19.17
2018-07-12T12:09:01.553Z,19.35
2018-07-12T12:10:01.463Z,19.39
2018-07-12T12:11:01.388Z,19.53
2018-07-12T12:12:01.395Z,19.70
2018-07-12T12:13:01.291Z,19.79
2018-07-12T12:14:01.121Z,19.85
2018-07-12T12:15:01.034Z,19.76
2018-07-12T12:16:00.949Z,19.57
2018-07-12T12:17:00.891Z,19.49
2018-07-12T12:18:00.776Z,19.83
2018-07-12T12:19:00.783Z,19.95
2018-07-12T12:20:00.607Z,20.00
2018-07-12T12:21:00.519Z,19.87
2018-07-12T12:22:00.464Z,19.94
2018-07-12T12:23:00.358Z,19.76
2018-07-12T12:24:00.262Z,19.71
2018-07-12T12:25:00.174Z,19.58
2018-07-12T12:26:00.095Z,19.47
2018-07-12T12:27:00.035Z,19.42
2018-07-12T12:27:59.918Z,19.35
2018-07-12T12:28:59.835Z,19.75
2018-07-12T12:29:59.748Z,19.83
2018-07-12T12:30:59.664Z,20.01
2018-07-12T12:31:59.610Z,20.16
2018-07-12T12:32:59.490Z,20.44
2018-07-12T12:33:59.407Z,20.73
2018-07-12T12:34:59.334Z,20.78
2018-07-12T12:35:59.234Z,20.81
2018-07-12T12:36:59.182Z,20.97
2018-07-12T12:37:59.065Z,20.87
2018-07-12T12:38:58.980Z,20.82
2018-07-12T12:39:58.896Z,20.79
2018-07-12T12:40:58.807Z,20.72
2018-07-12T12:41:58.782Z,21.27
2018-07-12T12:42:58.636Z,21.16
2018-07-12T12:43:58.555Z,20.93
2018-07-12T12:44:58.469Z,20.87
2018-07-12T12:45:58.386Z,20.60
2018-07-12T12:46:58.301Z,20.44
2018-07-12T12:47:58.246Z,20.33
2018-07-12T12:48:58.132Z,20.25
2018-07-12T12:49:58.046Z,20.16
2018-07-12T12:50:58.023Z,20.20